TAF for YPKS provided by aerobaticsweb.org
Current time: Sunday, 17 Oct, 2021, 02:52 UTC
(This may take a minute, please be patient)


No TAF for YPKS, get TAF for YSDU, 57 nm north of YPKS
The most recent TAF forecast from YSDU, 57 nm north of YPKS in our system was generated at
2021/10/16 18:36
The forecast is:
YPKS#YSDU 2021/10/16 18:36
TAF YSDU 161722Z 1618/1712 VRB03KT CAVOK
FM170100 27008KT CAVOK
FM170800 VRB03KT CAVOK PROB30 1618/1620 2000 BR NSC



access provided by Dr. Guenther Eichhorn at aerobaticsweb.org